sensor_id;sensor_type;location;lat;lon;timestamp;pressure;altitude;pressure_sealevel;temperature;humidity
16194;BME280;8204;53.582;10.080;2023-07-29T00:00:00;98931.19;;;21.50;100.00
16194;BME280;8204;53.582;10.080;2023-07-29T00:02:26;98913.06;;;21.47;100.00
16194;BME280;8204;53.582;10.080;2023-07-29T00:04:54;98921.63;;;21.44;100.00
16194;BME280;8204;53.582;10.080;2023-07-29T00:07:20;98920.56;;;21.40;100.00
16194;BME280;8204;53.582;10.080;2023-07-29T00:09:46;98916.56;;;21.38;100.00
16194;BME280;8204;53.582;10.080;2023-07-29T00:12:11;98924.31;;;21.34;100.00
16194;BME280;8204;53.582;10.080;2023-07-29T00:14:37;98923.00;;;21.32;100.00
16194;BME280;8204;53.582;10.080;2023-07-29T00:17:02;98913.69;;;21.29;100.00
16194;BME280;8204;53.582;10.080;2023-07-29T00:19:32;98892.88;;;21.27;100.00
16194;BME280;8204;53.582;10.080;2023-07-29T00:21:59;98882.78;;;21.24;100.00
16194;BME280;8204;53.582;10.080;2023-07-29T00:24:24;98872.66;;;21.21;100.00
16194;BME280;8204;53.582;10.080;2023-07-29T00:26:50;98868.69;;;21.18;100.00
16194;BME280;8204;53.582;10.080;2023-07-29T00:29:15;98867.88;;;21.18;100.00
16194;BME280;8204;53.582;10.080;2023-07-29T00:31:40;98839.13;;;21.15;100.00
16194;BME280;8204;53.582;10.080;2023-07-29T00:34:06;98818.88;;;21.14;100.00
16194;BME280;8204;53.582;10.080;2023-07-29T00:36:31;98832.75;;;21.11;100.00
16194;BME280;8204;53.582;10.080;2023-07-29T00:38:56;98823.16;;;21.10;100.00
16194;BME280;8204;53.582;10.080;2023-07-29T00:41:22;98805.03;;;21.07;100.00
16194;BME280;8204;53.582;10.080;2023-07-29T00:43:48;98810.66;;;21.05;100.00
16194;BME280;8204;53.582;10.080;2023-07-29T00:46:13;98799.75;;;21.02;100.00
16194;BME280;8204;53.582;10.080;2023-07-29T00:48:39;98791.22;;;21.00;100.00
16194;BME280;8204;53.582;10.080;2023-07-29T00:51:05;98780.06;;;20.98;100.00
16194;BME280;8204;53.582;10.080;2023-07-29T00:53:31;98784.06;;;20.95;100.00
16194;BME280;8204;53.582;10.080;2023-07-29T00:55:57;98788.06;;;20.93;100.00
16194;BME280;8204;53.582;10.080;2023-07-29T00:58:22;98763.56;;;20.91;100.00
16194;BME280;8204;53.582;10.080;2023-07-29T01:00:48;98765.72;;;20.89;100.00
16194;BME280;8204;53.582;10.080;2023-07-29T01:03:14;98751.59;;;20.88;100.00
16194;BME280;8204;53.582;10.080;2023-07-29T01:05:54;98753.47;;;20.88;100.00
16194;BME280;8204;53.582;10.080;2023-07-29T01:08:35;98748.41;;;20.86;100.00
16194;BME280;8204;53.582;10.080;2023-07-29T01:11:22;98751.34;;;20.85;100.00
16194;BME280;8204;53.582;10.080;2023-07-29T01:13:58;98727.63;;;20.83;100.00
16194;BME280;8204;53.582;10.080;2023-07-29T01:16:51;98687.19;;;20.81;100.00
16194;BME280;8204;53.582;10.080;2023-07-29T01:19:34;98673.88;;;20.81;100.00
16194;BME280;8204;53.582;10.080;2023-07-29T01:22:03;98650.72;;;20.82;100.00
16194;BME280;8204;53.582;10.080;2023-07-29T01:24:29;98638.75;;;20.79;100.00
16194;BME280;8204;53.582;10.080;2023-07-29T01:26:54;98636.88;;;20.80;100.00
16194;BME280;8204;53.582;10.080;2023-07-29T01:29:20;98628.88;;;20.80;100.00
16194;BME280;8204;53.582;10.080;2023-07-29T01:31:47;98620.91;;;20.80;100.00
16194;BME280;8204;53.582;10.080;2023-07-29T01:34:26;98615.56;;;20.80;100.00
16194;BME280;8204;53.582;10.080;2023-07-29T01:36:57;98595.88;;;20.81;100.00
16194;BME280;8204;53.582;10.080;2023-07-29T01:39:26;98580.97;;;20.80;100.00
16194;BME280;8204;53.582;10.080;2023-07-29T01:41:54;98592.13;;;20.82;100.00
16194;BME280;8204;53.582;10.080;2023-07-29T01:44:20;98592.94;;;20.82;100.00
16194;BME280;8204;53.582;10.080;2023-07-29T01:46:46;98588.41;;;20.83;100.00
16194;BME280;8204;53.582;10.080;2023-07-29T01:49:12;98591.06;;;20.83;100.00
16194;BME280;8204;53.582;10.080;2023-07-29T01:51:38;98583.09;;;20.83;100.00
16194;BME280;8204;53.582;10.080;2023-07-29T01:54:04;98576.69;;;20.84;100.00
16194;BME280;8204;53.582;10.080;2023-07-29T01:56:30;98583.63;;;20.85;100.00
16194;BME280;8204;53.582;10.080;2023-07-29T01:58:56;98587.88;;;20.86;100.00
16194;BME280;8204;53.582;10.080;2023-07-29T02:01:21;98575.06;;;20.88;100.00
16194;BME280;8204;53.582;10.080;2023-07-29T02:03:47;98578.53;;;20.88;100.00
16194;BME280;8204;53.582;10.080;2023-07-29T02:06:21;98509.03;;;20.90;100.00
16194;BME280;8204;53.582;10.080;2023-07-29T02:08:46;98455.78;;;20.90;100.00
16194;BME280;8204;53.582;10.080;2023-07-29T02:11:12;98397.97;;;20.90;100.00
16194;BME280;8204;53.582;10.080;2023-07-29T02:13:37;98337.84;;;20.89;100.00
16194;BME280;8204;53.582;10.080;2023-07-29T02:16:03;98293.88;;;20.92;100.00
16194;BME280;8204;53.582;10.080;2023-07-29T02:18:28;98257.38;;;20.92;100.00
16194;BME280;8204;53.582;10.080;2023-07-29T02:20:54;98227.00;;;20.93;100.00
16194;BME280;8204;53.582;10.080;2023-07-29T02:23:19;98203.56;;;20.95;100.00
16194;BME280;8204;53.582;10.080;2023-07-29T02:25:44;98186.00;;;20.94;100.00
16194;BME280;8204;53.582;10.080;2023-07-29T02:28:10;98192.09;;;20.95;100.00
16194;BME280;8204;53.582;10.080;2023-07-29T02:30:36;98209.66;;;20.96;100.00
16194;BME280;8204;53.582;10.080;2023-07-29T02:33:02;98218.72;;;20.95;100.00
16194;BME280;8204;53.582;10.080;2023-07-29T02:35:27;98208.06;;;20.95;100.00
16194;BME280;8204;53.582;10.080;2023-07-29T02:37:53;98196.34;;;20.96;100.00
16194;BME280;8204;53.582;10.080;2023-07-29T02:40:19;98187.59;;;20.95;100.00
16194;BME280;8204;53.582;10.080;2023-07-29T02:42:46;98206.50;;;20.94;100.00
16194;BME280;8204;53.582;10.080;2023-07-29T02:45:12;98228.59;;;20.94;100.00
16194;BME280;8204;53.582;10.080;2023-07-29T02:47:37;98219.81;;;20.94;100.00
16194;BME280;8204;53.582;10.080;2023-07-29T02:50:04;98209.97;;;20.94;100.00
16194;BME280;8204;53.582;10.080;2023-07-29T02:52:30;98218.72;;;20.95;100.00
16194;BME280;8204;53.582;10.080;2023-07-29T02:54:55;98211.81;;;20.94;100.00
16194;BME280;8204;53.582;10.080;2023-07-29T02:57:21;98212.63;;;20.94;100.00
16194;BME280;8204;53.582;10.080;2023-07-29T02:59:46;98212.63;;;20.94;100.00
16194;BME280;8204;53.582;10.080;2023-07-29T03:02:11;98204.94;;;20.93;100.00
16194;BME280;8204;53.582;10.080;2023-07-29T03:04:37;98202.28;;;20.93;100.00
16194;BME280;8204;53.582;10.080;2023-07-29T03:07:03;98212.41;;;20.91;100.00
16194;BME280;8204;53.582;10.080;2023-07-29T03:09:29;98214.56;;;20.89;100.00
16194;BME280;8204;53.582;10.080;2023-07-29T03:11:54;98234.25;;;20.88;100.00
16194;BME280;8204;53.582;10.080;2023-07-29T03:14:20;98222.81;;;20.87;100.00
16194;BME280;8204;53.582;10.080;2023-07-29T03:16:46;98223.13;;;20.86;100.00
16194;BME280;8204;53.582;10.080;2023-07-29T03:19:12;98229.53;;;20.85;100.00
16194;BME280;8204;53.582;10.080;2023-07-29T03:21:38;98235.09;;;20.83;100.00
16194;BME280;8204;53.582;10.080;2023-07-29T03:24:03;98255.63;;;20.83;100.00
16194;BME280;8204;53.582;10.080;2023-07-29T03:26:29;98263.09;;;20.81;100.00
16194;BME280;8204;53.582;10.080;2023-07-29T03:28:55;98276.97;;;20.78;100.00
16194;BME280;8204;53.582;10.080;2023-07-29T03:31:20;98291.38;;;20.77;100.00
16194;BME280;8204;53.582;10.080;2023-07-29T03:33:45;98290.84;;;20.75;100.00
16194;BME280;8204;53.582;10.080;2023-07-29T03:36:11;98296.44;;;20.73;100.00
16194;BME280;8204;53.582;10.080;2023-07-29T03:38:37;98315.34;;;20.72;100.00
16194;BME280;8204;53.582;10.080;2023-07-29T03:41:07;98314.31;;;20.68;100.00
16194;BME280;8204;53.582;10.080;2023-07-29T03:43:33;98302.88;;;20.67;100.00
16194;BME280;8204;53.582;10.080;2023-07-29T03:45:58;98288.28;;;20.65;100.00
16194;BME280;8204;53.582;10.080;2023-07-29T03:48:23;98275.25;;;20.63;100.00
16194;BME280;8204;53.582;10.080;2023-07-29T03:50:49;98262.44;;;20.65;100.00
16194;BME280;8204;53.582;10.080;2023-07-29T03:53:14;98239.84;;;20.63;100.00
16194;BME280;8204;53.582;10.080;2023-07-29T03:55:39;98240.66;;;20.63;100.00
16194;BME280;8204;53.582;10.080;2023-07-29T03:58:05;98223.88;;;20.63;100.00
16194;BME280;8204;53.582;10.080;2023-07-29T04:00:31;98235.34;;;20.63;100.00
16194;BME280;8204;53.582;10.080;2023-07-29T04:02:56;98236.41;;;20.62;100.00
16194;BME280;8204;53.582;10.080;2023-07-29T04:05:22;98249.97;;;20.61;100.00
16194;BME280;8204;53.582;10.080;2023-07-29T04:07:47;98244.66;;;20.61;100.00
16194;BME280;8204;53.582;10.080;2023-07-29T04:10:13;98222.59;;;20.60;100.00
16194;BME280;8204;53.582;10.080;2023-07-29T04:12:39;98211.66;;;20.62;100.00
16194;BME280;8204;53.582;10.080;2023-07-29T04:15:05;98212.72;;;20.61;100.00
16194;BME280;8204;53.582;10.080;2023-07-29T04:17:30;98206.31;;;20.62;100.00
16194;BME280;8204;53.582;10.080;2023-07-29T04:19:56;98214.81;;;20.64;100.00
16194;BME280;8204;53.582;10.080;2023-07-29T04:22:22;98213.22;;;20.63;100.00
16194;BME280;8204;53.582;10.080;2023-07-29T04:24:47;98214.03;;;20.63;100.00
16194;BME280;8204;53.582;10.080;2023-07-29T04:27:12;98222.81;;;20.64;100.00
16194;BME280;8204;53.582;10.080;2023-07-29T04:29:38;98216.13;;;20.66;100.00
16194;BME280;8204;53.582;10.080;2023-07-29T04:32:04;98210.50;;;20.68;100.00
16194;BME280;8204;53.582;10.080;2023-07-29T04:34:29;98221.66;;;20.70;100.00
16194;BME280;8204;53.582;10.080;2023-07-29T04:36:54;98229.66;;;20.70;100.00
16194;BME280;8204;53.582;10.080;2023-07-29T04:39:20;98209.16;;;20.70;100.00
16194;BME280;8204;53.582;10.080;2023-07-29T04:41:45;98195.56;;;20.72;100.00
16194;BME280;8204;53.582;10.080;2023-07-29T04:44:11;98196.06;;;20.74;100.00
16194;BME280;8204;53.582;10.080;2023-07-29T04:46:37;98204.59;;;20.76;100.00
16194;BME280;8204;53.582;10.080;2023-07-29T04:49:03;98201.94;;;20.76;100.00
16194;BME280;8204;53.582;10.080;2023-07-29T04:51:29;98209.91;;;20.76;100.00
16194;BME280;8204;53.582;10.080;2023-07-29T04:53:55;98222.66;;;20.79;100.00
16194;BME280;8204;53.582;10.080;2023-07-29T04:56:20;98210.91;;;20.80;100.00
16194;BME280;8204;53.582;10.080;2023-07-29T04:58:45;98205.59;;;20.80;100.00
16194;BME280;8204;53.582;10.080;2023-07-29T05:01:11;98208.00;;;20.81;100.00
16194;BME280;8204;53.582;10.080;2023-07-29T05:03:36;98216.75;;;20.82;100.00
16194;BME280;8204;53.582;10.080;2023-07-29T05:06:02;98214.63;;;20.84;100.00
16194;BME280;8204;53.582;10.080;2023-07-29T05:08:29;98216.69;;;20.87;100.00
16194;BME280;8204;53.582;10.080;2023-07-29T05:10:55;98217.50;;;20.87;100.00
16194;BME280;8204;53.582;10.080;2023-07-29T05:13:22;98226.00;;;20.89;100.00
16194;BME280;8204;53.582;10.080;2023-07-29T05:15:48;98246.50;;;20.89;100.00
16194;BME280;8204;53.582;10.080;2023-07-29T05:18:15;98261.69;;;20.88;100.00
16194;BME280;8204;53.582;10.080;2023-07-29T05:20:41;98265.94;;;20.89;100.00
16194;BME280;8204;53.582;10.080;2023-07-29T05:23:06;98267.25;;;20.92;100.00
16194;BME280;8204;53.582;10.080;2023-07-29T05:25:32;98260.03;;;20.92;100.00
16194;BME280;8204;53.582;10.080;2023-07-29T05:28:00;98243.50;;;20.95;100.00
16194;BME280;8204;53.582;10.080;2023-07-29T05:30:25;98251.72;;;20.99;100.00
16194;BME280;8204;53.582;10.080;2023-07-29T05:32:52;98258.34;;;21.01;100.00
16194;BME280;8204;53.582;10.080;2023-07-29T05:35:17;98243.66;;;21.04;100.00
16194;BME280;8204;53.582;10.080;2023-07-29T05:37:43;98243.88;;;21.07;100.00
16194;BME280;8204;53.582;10.080;2023-07-29T05:40:09;98229.72;;;21.12;100.00
16194;BME280;8204;53.582;10.080;2023-07-29T05:42:34;98231.50;;;21.16;100.00
16194;BME280;8204;53.582;10.080;2023-07-29T05:45:00;98238.63;;;21.21;100.00
16194;BME280;8204;53.582;10.080;2023-07-29T05:47:26;98229.00;;;21.25;100.00
16194;BME280;8204;53.582;10.080;2023-07-29T05:49:52;98244.09;;;21.29;100.00
16194;BME280;8204;53.582;10.080;2023-07-29T05:52:18;98272.56;;;21.33;100.00
16194;BME280;8204;53.582;10.080;2023-07-29T05:54:44;98304.75;;;21.37;100.00
16194;BME280;8204;53.582;10.080;2023-07-29T05:57:10;98334.28;;;21.40;100.00
16194;BME280;8204;53.582;10.080;2023-07-29T05:59:36;98351.31;;;21.44;100.00
16194;BME280;8204;53.582;10.080;2023-07-29T06:02:01;98340.06;;;21.47;100.00
16194;BME280;8204;53.582;10.080;2023-07-29T06:04:28;98365.94;;;21.47;100.00
16194;BME280;8204;53.582;10.080;2023-07-29T06:06:53;98365.13;;;21.46;100.00
16194;BME280;8204;53.582;10.080;2023-07-29T06:09:21;98352.31;;;21.48;100.00
16194;BME280;8204;53.582;10.080;2023-07-29T06:11:46;98319.25;;;21.49;100.00
16194;BME280;8204;53.582;10.080;2023-07-29T06:14:12;98296.56;;;21.52;100.00
16194;BME280;8204;53.582;10.080;2023-07-29T06:16:37;98284.56;;;21.54;100.00
16194;BME280;8204;53.582;10.080;2023-07-29T06:19:03;98285.06;;;21.56;100.00
16194;BME280;8204;53.582;10.080;2023-07-29T06:21:28;98295.97;;;21.60;100.00
16194;BME280;8204;53.582;10.080;2023-07-29T06:23:53;98284.44;;;21.64;100.00
16194;BME280;8204;53.582;10.080;2023-07-29T06:26:19;98293.44;;;21.68;100.00
16194;BME280;8204;53.582;10.080;2023-07-29T06:28:44;98346.44;;;21.70;100.00
16194;BME280;8204;53.582;10.080;2023-07-29T06:31:10;98375.47;;;21.71;100.00
16194;BME280;8204;53.582;10.080;2023-07-29T06:33:36;98371.75;;;21.72;100.00
16194;BME280;8204;53.582;10.080;2023-07-29T06:36:01;98352.22;;;21.77;100.00
16194;BME280;8204;53.582;10.080;2023-07-29T06:38:27;98331.09;;;21.80;100.00
16194;BME280;8204;53.582;10.080;2023-07-29T06:40:53;98318.22;;;21.87;100.00
16194;BME280;8204;53.582;10.080;2023-07-29T06:43:18;98310.13;;;21.92;100.00
16194;BME280;8204;53.582;10.080;2023-07-29T06:45:44;98306.59;;;21.97;100.00
16194;BME280;8204;53.582;10.080;2023-07-29T06:48:09;98318.25;;;22.01;100.00
16194;BME280;8204;53.582;10.080;2023-07-29T06:50:35;98312.06;;;22.05;100.00
16194;BME280;8204;53.582;10.080;2023-07-29T06:53:01;98306.66;;;22.10;100.00
16194;BME280;8204;53.582;10.080;2023-07-29T06:55:26;98315.66;;;22.14;100.00
16194;BME280;8204;53.582;10.080;2023-07-29T06:57:52;98331.59;;;22.19;100.00
16194;BME280;8204;53.582;10.080;2023-07-29T07:00:18;98348.00;;;22.26;100.00
16194;BME280;8204;53.582;10.080;2023-07-29T07:02:43;98361.31;;;22.31;100.00
16194;BME280;8204;53.582;10.080;2023-07-29T07:05:08;98379.94;;;22.36;100.00
16194;BME280;8204;53.582;10.080;2023-07-29T07:07:34;98420.44;;;22.38;100.00
16194;BME280;8204;53.582;10.080;2023-07-29T07:09:59;98483.13;;;22.40;100.00
16194;BME280;8204;53.582;10.080;2023-07-29T07:12:25;98518.41;;;22.37;100.00
16194;BME280;8204;53.582;10.080;2023-07-29T07:14:51;98496.53;;;22.35;100.00
16194;BME280;8204;53.582;10.080;2023-07-29T07:17:16;98500.59;;;22.33;100.00
16194;BME280;8204;53.582;10.080;2023-07-29T07:19:43;98486.25;;;22.29;100.00
16194;BME280;8204;53.582;10.080;2023-07-29T07:22:08;98489.44;;;22.26;100.00
16194;BME280;8204;53.582;10.080;2023-07-29T07:24:33;98493.78;;;22.22;100.00
16194;BME280;8204;53.582;10.080;2023-07-29T07:26:59;98487.94;;;22.20;100.00
16194;BME280;8204;53.582;10.080;2023-07-29T07:29:25;98465.00;;;22.19;100.00
16194;BME280;8204;53.582;10.080;2023-07-29T07:31:52;98427.94;;;22.17;100.00
16194;BME280;8204;53.582;10.080;2023-07-29T07:34:19;98464.47;;;22.17;100.00
16194;BME280;8204;53.582;10.080;2023-07-29T07:36:44;98488.47;;;22.17;100.00
16194;BME280;8204;53.582;10.080;2023-07-29T07:39:10;98474.88;;;22.18;100.00
16194;BME280;8204;53.582;10.080;2023-07-29T07:41:36;98489.00;;;22.19;100.00
16194;BME280;8204;53.582;10.080;2023-07-29T07:44:01;98499.13;;;22.22;100.00
16194;BME280;8204;53.582;10.080;2023-07-29T07:46:28;98485.19;;;22.25;100.00
16194;BME280;8204;53.582;10.080;2023-07-29T07:48:54;98484.63;;;22.28;100.00
16194;BME280;8204;53.582;10.080;2023-07-29T07:51:20;98480.31;;;22.32;100.00
16194;BME280;8204;53.582;10.080;2023-07-29T07:53:46;98485.09;;;22.35;100.00
16194;BME280;8204;53.582;10.080;2023-07-29T07:56:11;98483.72;;;22.37;100.00
16194;BME280;8204;53.582;10.080;2023-07-29T07:58:36;98481.25;;;22.41;100.00
16194;BME280;8204;53.582;10.080;2023-07-29T08:01:06;98510.03;;;22.44;100.00
16194;BME280;8204;53.582;10.080;2023-07-29T08:03:32;98515.88;;;22.46;100.00
16194;BME280;8204;53.582;10.080;2023-07-29T08:05:58;98525.50;;;22.47;100.00
16194;BME280;8204;53.582;10.080;2023-07-29T08:08:24;98573.53;;;22.47;100.00
16194;BME280;8204;53.582;10.080;2023-07-29T08:10:50;98619.47;;;22.44;100.00
16194;BME280;8204;53.582;10.080;2023-07-29T08:13:15;98603.47;;;22.44;100.00
16194;BME280;8204;53.582;10.080;2023-07-29T08:15:41;98604.56;;;22.43;100.00
16194;BME280;8204;53.582;10.080;2023-07-29T08:18:06;98607.72;;;22.45;100.00
16194;BME280;8204;53.582;10.080;2023-07-29T08:20:32;98587.41;;;22.49;100.00
16194;BME280;8204;53.582;10.080;2023-07-29T08:22:58;98599.09;;;22.53;100.00
16194;BME280;8204;53.582;10.080;2023-07-29T08:25:23;98606.78;;;22.54;100.00
16194;BME280;8204;53.582;10.080;2023-07-29T08:27:48;98612.13;;;22.54;100.00
16194;BME280;8204;53.582;10.080;2023-07-29T08:30:14;98638.06;;;22.54;100.00
16194;BME280;8204;53.582;10.080;2023-07-29T08:32:41;98662.09;;;22.54;100.00
16194;BME280;8204;53.582;10.080;2023-07-29T08:35:06;98663.66;;;22.55;100.00
16194;BME280;8204;53.582;10.080;2023-07-29T08:37:32;98671.63;;;22.60;100.00
16194;BME280;8204;53.582;10.080;2023-07-29T08:39:58;98702.81;;;22.64;100.00
16194;BME280;8204;53.582;10.080;2023-07-29T08:42:29;98722.81;;;22.67;100.00
16194;BME280;8204;53.582;10.080;2023-07-29T08:44:55;98728.16;;;22.67;100.00
16194;BME280;8204;53.582;10.080;2023-07-29T08:47:21;98745.75;;;22.68;100.00
16194;BME280;8204;53.582;10.080;2023-07-29T08:49:47;98761.78;;;22.68;100.00
16194;BME280;8204;53.582;10.080;2023-07-29T08:52:14;98782.06;;;22.69;100.00
16194;BME280;8204;53.582;10.080;2023-07-29T08:54:40;98754.50;;;22.73;100.00
16194;BME280;8204;53.582;10.080;2023-07-29T08:57:06;98764.91;;;22.75;100.00
16194;BME280;8204;53.582;10.080;2023-07-29T08:59:32;98784.09;;;22.77;100.00
16194;BME280;8204;53.582;10.080;2023-07-29T09:01:58;98780.06;;;22.79;100.00
16194;BME280;8204;53.582;10.080;2023-07-29T09:04:23;98778.19;;;22.79;100.00
16194;BME280;8204;53.582;10.080;2023-07-29T09:06:50;98756.84;;;22.79;100.00
16194;BME280;8204;53.582;10.080;2023-07-29T09:09:16;98740.50;;;22.81;100.00
16194;BME280;8204;53.582;10.080;2023-07-29T09:11:41;98766.44;;;22.80;100.00
16194;BME280;8204;53.582;10.080;2023-07-29T09:14:08;98778.44;;;22.83;100.00
16194;BME280;8204;53.582;10.080;2023-07-29T09:16:34;98779.72;;;22.85;100.00
16194;BME280;8204;53.582;10.080;2023-07-29T09:19:01;98801.34;;;22.89;100.00
16194;BME280;8204;53.582;10.080;2023-07-29T09:21:28;98817.59;;;22.92;100.00
16194;BME280;8204;53.582;10.080;2023-07-29T09:23:55;98829.28;;;22.96;100.00
16194;BME280;8204;53.582;10.080;2023-07-29T09:26:25;98879.75;;;23.03;100.00
16194;BME280;8204;53.582;10.080;2023-07-29T09:28:53;98853.75;;;23.08;100.00
16194;BME280;8204;53.582;10.080;2023-07-29T09:31:23;98896.75;;;23.12;100.00
16194;BME280;8204;53.582;10.080;2023-07-29T09:33:49;98908.72;;;23.19;100.00
16194;BME280;8204;53.582;10.080;2023-07-29T09:36:15;98907.56;;;23.25;100.00
16194;BME280;8204;53.582;10.080;2023-07-29T09:38:40;98962.06;;;23.29;100.00
16194;BME280;8204;53.582;10.080;2023-07-29T09:41:06;98996.75;;;23.34;100.00
16194;BME280;8204;53.582;10.080;2023-07-29T09:43:33;99036.59;;;23.36;100.00
16194;BME280;8204;53.582;10.080;2023-07-29T09:46:05;99055.06;;;23.32;100.00
16194;BME280;8204;53.582;10.080;2023-07-29T09:48:35;99037.38;;;23.36;100.00
16194;BME280;8204;53.582;10.080;2023-07-29T09:51:12;99030.44;;;23.35;100.00
16194;BME280;8204;53.582;10.080;2023-07-29T09:53:49;99119.22;;;23.32;100.00
16194;BME280;8204;53.582;10.080;2023-07-29T09:56:15;99143.28;;;23.32;100.00
16194;BME280;8204;53.582;10.080;2023-07-29T09:58:43;99107.19;;;23.35;100.00
16194;BME280;8204;53.582;10.080;2023-07-29T10:01:11;99148.06;;;23.35;100.00
16194;BME280;8204;53.582;10.080;2023-07-29T10:03:37;99091.91;;;23.40;100.00
16194;BME280;8204;53.582;10.080;2023-07-29T10:06:03;99094.81;;;23.44;100.00
16194;BME280;8204;53.582;10.080;2023-07-29T10:08:30;99107.06;;;23.50;100.00
16194;BME280;8204;53.582;10.080;2023-07-29T10:11:01;99093.06;;;23.57;100.00
16194;BME280;8204;53.582;10.080;2023-07-29T10:13:27;99191.19;;;23.62;100.00
16194;BME280;8204;53.582;10.080;2023-07-29T10:15:53;99248.38;;;23.71;100.00
16194;BME280;8204;53.582;10.080;2023-07-29T10:18:20;99245.38;;;23.82;100.00
16194;BME280;8204;53.582;10.080;2023-07-29T10:20:48;99330.63;;;23.94;100.00
16194;BME280;8204;53.582;10.080;2023-07-29T10:23:17;99393.44;;;24.06;100.00
16194;BME280;8204;53.582;10.080;2023-07-29T10:25:46;99402.22;;;24.17;100.00
16194;BME280;8204;53.582;10.080;2023-07-29T10:28:12;99392.50;;;24.26;100.00
16194;BME280;8204;53.582;10.080;2023-07-29T10:30:39;99443.84;;;24.37;100.00
16194;BME280;8204;53.582;10.080;2023-07-29T10:33:05;99497.06;;;24.49;100.00
16194;BME280;8204;53.582;10.080;2023-07-29T10:35:33;99490.59;;;24.60;100.00
16194;BME280;8204;53.582;10.080;2023-07-29T10:37:59;99505.78;;;24.69;100.00
16194;BME280;8204;53.582;10.080;2023-07-29T10:40:25;99593.09;;;24.75;100.00
16194;BME280;8204;53.582;10.080;2023-07-29T10:43:24;99568.69;;;24.77;100.00
16194;BME280;8204;53.582;10.080;2023-07-29T10:45:50;99650.16;;;24.76;100.00
16194;BME280;8204;53.582;10.080;2023-07-29T10:54:09;99788.44;;;24.87;100.00
16194;BME280;8204;53.582;10.080;2023-07-29T10:56:36;99822.47;;;24.86;100.00
16194;BME280;8204;53.582;10.080;2023-07-29T11:01:38;99799.97;;;24.82;100.00
16194;BME280;8204;53.582;10.080;2023-07-29T11:12:35;99814.69;;;24.85;100.00
16194;BME280;8204;53.582;10.080;2023-07-29T11:17:38;99850.06;;;24.82;100.00
16194;BME280;8204;53.582;10.080;2023-07-29T11:20:04;99843.94;;;24.81;100.00
16194;BME280;8204;53.582;10.080;2023-07-29T11:22:30;99852.50;;;24.83;100.00
16194;BME280;8204;53.582;10.080;2023-07-29T11:24:56;99854.59;;;24.91;100.00
16194;BME280;8204;53.582;10.080;2023-07-29T11:27:21;99850.59;;;24.99;100.00
16194;BME280;8204;53.582;10.080;2023-07-29T11:29:48;99838.19;;;25.07;100.00
16194;BME280;8204;53.582;10.080;2023-07-29T11:32:14;99866.91;;;25.12;100.00
16194;BME280;8204;53.582;10.080;2023-07-29T11:34:41;99922.72;;;25.10;100.00
16194;BME280;8204;53.582;10.080;2023-07-29T11:37:10;99902.28;;;25.04;100.00
16194;BME280;8204;53.582;10.080;2023-07-29T11:39:42;99907.69;;;24.94;100.00
16194;BME280;8204;53.582;10.080;2023-07-29T11:42:11;99900.75;;;24.83;100.00
16194;BME280;8204;53.582;10.080;2023-07-29T11:44:37;99945.25;;;24.69;100.00
16194;BME280;8204;53.582;10.080;2023-07-29T11:47:12;99899.69;;;24.59;100.00
16194;BME280;8204;53.582;10.080;2023-07-29T11:49:39;99827.38;;;24.54;100.00
16194;BME280;8204;53.582;10.080;2023-07-29T11:52:10;99780.22;;;24.53;100.00
16194;BME280;8204;53.582;10.080;2023-07-29T11:54:37;99842.09;;;24.57;100.00
16194;BME280;8204;53.582;10.080;2023-07-29T11:57:06;99858.16;;;24.67;100.00
16194;BME280;8204;53.582;10.080;2023-07-29T11:59:33;99937.75;;;24.76;100.00
16194;BME280;8204;53.582;10.080;2023-07-29T12:02:01;99913.59;;;24.91;100.00
16194;BME280;8204;53.582;10.080;2023-07-29T12:04:27;99963.44;;;25.07;100.00
16194;BME280;8204;53.582;10.080;2023-07-29T12:06:52;99968.00;;;25.21;100.00
16194;BME280;8204;53.582;10.080;2023-07-29T12:09:18;99982.16;;;25.37;100.00
16194;BME280;8204;53.582;10.080;2023-07-29T12:11:44;99994.75;;;25.51;100.00
16194;BME280;8204;53.582;10.080;2023-07-29T12:14:09;100033.63;;;25.69;100.00
16194;BME280;8204;53.582;10.080;2023-07-29T12:16:42;100065.28;;;25.77;100.00
16194;BME280;8204;53.582;10.080;2023-07-29T12:19:08;100090.53;;;25.81;100.00
16194;BME280;8204;53.582;10.080;2023-07-29T12:21:33;100108.22;;;25.86;100.00
16194;BME280;8204;53.582;10.080;2023-07-29T12:23:59;100101.47;;;25.94;100.00
16194;BME280;8204;53.582;10.080;2023-07-29T12:26:28;100114.38;;;25.97;100.00
16194;BME280;8204;53.582;10.080;2023-07-29T12:28:54;100137.16;;;26.04;100.00
16194;BME280;8204;53.582;10.080;2023-07-29T12:31:20;100150.03;;;26.12;100.00
16194;BME280;8204;53.582;10.080;2023-07-29T12:33:45;100160.22;;;26.25;100.00
16194;BME280;8204;53.582;10.080;2023-07-29T12:36:11;100167.72;;;26.38;100.00
16194;BME280;8204;53.582;10.080;2023-07-29T12:38:36;100170.88;;;26.50;100.00
16194;BME280;8204;53.582;10.080;2023-07-29T12:41:02;100181.03;;;26.63;100.00
16194;BME280;8204;53.582;10.080;2023-07-29T12:43:27;100165.66;;;26.73;100.00
16194;BME280;8204;53.582;10.080;2023-07-29T12:45:53;100172.03;;;26.87;100.00
16194;BME280;8204;53.582;10.080;2023-07-29T12:48:18;100180.59;;;26.99;100.00
16194;BME280;8204;53.582;10.080;2023-07-29T12:50:44;100188.84;;;27.13;100.00
16194;BME280;8204;53.582;10.080;2023-07-29T12:53:10;100199.59;;;27.18;100.00
16194;BME280;8204;53.582;10.080;2023-07-29T12:55:36;100192.03;;;27.20;100.00
16194;BME280;8204;53.582;10.080;2023-07-29T12:58:01;100184.69;;;27.30;100.00
16194;BME280;8204;53.582;10.080;2023-07-29T13:00:27;100191.03;;;27.44;100.00
16194;BME280;8204;53.582;10.080;2023-07-29T13:02:52;100200.88;;;27.63;100.00
16194;BME280;8204;53.582;10.080;2023-07-29T13:05:17;100195.59;;;27.82;100.00